createdAt,value
2019-01-12T00:01:35.270Z,21.07
2019-01-12T00:04:02.765Z,28.15
2019-01-12T00:06:30.237Z,23.47
2019-01-12T00:08:57.765Z,21.50
2019-01-12T00:11:25.286Z,22.95
2019-01-12T00:13:52.777Z,31.45
2019-01-12T00:16:21.476Z,26.50
2019-01-12T00:18:49.235Z,25.25
2019-01-12T00:21:16.807Z,27.15
2019-01-12T00:23:44.316Z,25.55
2019-01-12T00:26:11.808Z,30.30
2019-01-12T00:28:39.301Z,32.08
2019-01-12T00:31:06.807Z,23.47
2019-01-12T00:33:34.303Z,18.32
2019-01-12T00:36:01.794Z,22.13
2019-01-12T00:38:29.291Z,26.52
2019-01-12T00:40:56.813Z,24.05
2019-01-12T00:43:24.293Z,30.70
2019-01-12T00:45:51.790Z,33.53
2019-01-12T00:48:19.301Z,31.90
2019-01-12T00:50:46.776Z,30.88
2019-01-12T00:53:14.256Z,25.52
2019-01-12T00:55:41.781Z,27.90
2019-01-12T00:58:09.262Z,27.75
2019-01-12T01:00:36.743Z,22.45
2019-01-12T01:03:04.285Z,25.05
2019-01-12T01:05:31.832Z,34.53
2019-01-12T01:07:59.313Z,27.02
2019-01-12T01:10:26.820Z,28.77
2019-01-12T01:12:54.301Z,26.93
2019-01-12T01:15:21.784Z,26.65
2019-01-12T01:17:49.313Z,29.00
2019-01-12T01:20:17.181Z,21.40
2019-01-12T01:22:44.662Z,32.83
2019-01-12T01:25:12.488Z,29.42
2019-01-12T01:27:39.968Z,25.77
2019-01-12T01:30:08.922Z,23.85
2019-01-12T01:32:36.449Z,25.55
2019-01-12T01:35:04.729Z,29.40
2019-01-12T01:37:32.295Z,28.52
2019-01-12T01:39:59.854Z,25.35
2019-01-12T01:42:27.327Z,27.60
2019-01-12T01:44:54.799Z,26.55
2019-01-12T01:47:22.318Z,27.20
2019-01-12T01:49:49.865Z,27.73
2019-01-12T01:52:17.368Z,26.17
2019-01-12T01:54:44.867Z,23.55
2019-01-12T01:57:12.346Z,32.30
2019-01-12T01:59:39.901Z,23.45
2019-01-12T02:02:07.404Z,21.70
2019-01-12T02:04:34.889Z,20.23
2019-01-12T02:07:02.381Z,21.97
2019-01-12T02:09:29.889Z,25.75
2019-01-12T02:11:57.365Z,25.90
2019-01-12T02:14:24.883Z,21.00
2019-01-12T02:16:52.376Z,18.05
2019-01-12T02:19:19.844Z,18.20
2019-01-12T02:21:47.363Z,18.55
2019-01-12T02:24:14.849Z,17.65
2019-01-12T02:26:42.331Z,20.52
2019-01-12T02:29:09.846Z,21.15
2019-01-12T02:31:37.350Z,21.23
2019-01-12T02:34:04.822Z,16.45
2019-01-12T02:36:32.398Z,22.98
2019-01-12T02:38:59.924Z,20.62
2019-01-12T02:41:27.415Z,20.08
2019-01-12T02:43:54.964Z,16.35
2019-01-12T02:46:22.539Z,19.10
2019-01-12T02:48:50.055Z,17.95
2019-01-12T02:51:17.539Z,23.98
2019-01-12T02:53:45.082Z,18.42
2019-01-12T02:56:13.124Z,18.82
2019-01-12T02:58:40.579Z,20.52
2019-01-12T03:01:08.139Z,20.52
2019-01-12T03:03:35.632Z,20.95
2019-01-12T03:06:03.128Z,21.85
2019-01-12T03:08:30.708Z,17.35
2019-01-12T03:10:58.183Z,22.90
2019-01-12T03:13:26.011Z,18.80
2019-01-12T03:15:53.513Z,20.43
2019-01-12T03:18:20.982Z,14.95
2019-01-12T03:20:48.456Z,18.52
2019-01-12T03:23:16.012Z,23.12
2019-01-12T03:25:43.497Z,24.45
2019-01-12T03:28:10.967Z,22.80
2019-01-12T03:30:38.492Z,24.27
2019-01-12T03:33:05.958Z,17.45
2019-01-12T03:35:33.434Z,18.60
2019-01-12T03:38:00.937Z,23.90
2019-01-12T03:40:28.418Z,23.00
2019-01-12T03:42:55.961Z,20.50
2019-01-12T03:45:23.537Z,20.88
2019-01-12T03:47:51.094Z,16.45
2019-01-12T03:50:18.770Z,22.52
2019-01-12T03:52:46.272Z,17.73
2019-01-12T03:55:13.749Z,24.35
2019-01-12T03:57:41.238Z,20.97
2019-01-12T04:00:10.210Z,21.62
2019-01-12T04:02:37.880Z,23.07
2019-01-12T04:05:05.812Z,21.82
2019-01-12T04:07:33.316Z,15.60
2019-01-12T04:10:00.820Z,17.67
2019-01-12T04:12:28.352Z,19.82
2019-01-12T04:14:55.883Z,22.37
2019-01-12T04:17:23.444Z,15.03
2019-01-12T04:19:50.905Z,17.75
2019-01-12T04:22:18.414Z,19.00
2019-01-12T04:24:45.886Z,21.97
2019-01-12T04:27:13.362Z,21.73
2019-01-12T04:29:40.878Z,24.05
2019-01-12T04:32:08.356Z,18.30
2019-01-12T04:34:35.854Z,21.57
2019-01-12T04:37:03.403Z,17.42
2019-01-12T04:39:30.876Z,19.05
2019-01-12T04:41:58.351Z,17.48
2019-01-12T04:44:25.847Z,21.97
2019-01-12T04:46:53.328Z,18.80
2019-01-12T04:49:20.814Z,20.15
2019-01-12T04:51:48.309Z,19.07
2019-01-12T04:54:15.800Z,15.23
2019-01-12T04:56:43.280Z,18.30
2019-01-12T04:59:10.800Z,16.62
2019-01-12T05:01:38.279Z,15.30
2019-01-12T05:04:05.781Z,17.80
2019-01-12T05:06:33.296Z,16.25
2019-01-12T05:09:00.773Z,17.15
2019-01-12T05:11:28.276Z,17.57
2019-01-12T05:13:55.780Z,13.05
2019-01-12T05:16:23.252Z,18.35
2019-01-12T05:18:50.756Z,17.40
2019-01-12T05:21:18.233Z,15.35
2019-01-12T05:23:45.769Z,14.90
2019-01-12T05:26:13.279Z,15.13
2019-01-12T05:28:40.761Z,16.07
2019-01-12T05:31:08.262Z,20.23
2019-01-12T05:33:35.778Z,21.65
2019-01-12T05:36:03.280Z,15.93
2019-01-12T05:38:30.725Z,17.80
2019-01-12T05:40:58.241Z,16.67
2019-01-12T05:43:25.728Z,15.32
2019-01-12T05:45:53.204Z,13.10
2019-01-12T05:48:20.749Z,22.22
2019-01-12T05:50:48.181Z,12.18
2019-01-12T05:53:15.652Z,12.73
2019-01-12T05:55:43.148Z,12.53
2019-01-12T05:58:10.700Z,12.75
2019-01-12T06:00:38.192Z,19.00
2019-01-12T06:03:05.756Z,12.65
2019-01-12T06:05:33.244Z,20.17
2019-01-12T06:08:00.711Z,20.32
2019-01-12T06:10:28.223Z,16.15
2019-01-12T06:12:55.703Z,16.40
2019-01-12T06:15:23.178Z,13.00
2019-01-12T06:17:50.708Z,15.40
2019-01-12T06:20:18.161Z,16.75
2019-01-12T06:22:45.721Z,15.18
2019-01-12T06:25:13.208Z,13.88
2019-01-12T06:27:40.683Z,10.90
2019-01-12T06:30:12.459Z,13.48
2019-01-12T06:32:40.044Z,13.55
2019-01-12T06:35:07.773Z,10.95
2019-01-12T06:37:35.312Z,11.08
2019-01-12T06:40:03.118Z,12.25
2019-01-12T06:42:32.218Z,15.63
2019-01-12T06:44:59.697Z,13.80
2019-01-12T06:47:27.202Z,12.55
2019-01-12T06:49:54.706Z,12.88
2019-01-12T06:52:22.170Z,12.23
2019-01-12T06:54:49.655Z,8.88
2019-01-12T06:57:17.190Z,14.40
2019-01-12T06:59:44.692Z,10.28
2019-01-12T07:02:12.160Z,11.05
2019-01-12T07:04:39.680Z,11.73
2019-01-12T07:07:07.169Z,14.85
2019-01-12T07:09:34.641Z,12.35
2019-01-12T07:12:02.114Z,13.20
2019-01-12T07:14:29.630Z,12.73
2019-01-12T07:16:57.088Z,9.95
2019-01-12T07:19:24.552Z,9.35
2019-01-12T07:21:52.131Z,9.75
2019-01-12T07:24:19.609Z,12.75
2019-01-12T07:26:47.084Z,11.63
2019-01-12T07:29:14.597Z,14.50
2019-01-12T07:31:42.063Z,13.75
2019-01-12T07:34:09.541Z,14.50
2019-01-12T07:36:37.031Z,12.47
2019-01-12T07:39:06.209Z,11.35
2019-01-12T07:41:33.753Z,15.10
2019-01-12T07:44:01.272Z,12.80
2019-01-12T07:46:28.727Z,10.00
2019-01-12T07:48:56.199Z,12.45
2019-01-12T07:51:23.721Z,12.00
2019-01-12T07:53:51.188Z,10.40
2019-01-12T07:56:24.370Z,15.03
2019-01-12T07:58:47.888Z,11.88
2019-01-12T08:01:15.467Z,12.28
2019-01-12T08:03:42.948Z,12.98
2019-01-12T08:06:10.530Z,14.95
2019-01-12T08:08:38.032Z,17.82
2019-01-12T08:11:05.512Z,12.23
2019-01-12T08:13:33.013Z,9.93
2019-01-12T08:16:00.556Z,12.33
2019-01-12T08:18:28.032Z,11.73
2019-01-12T08:20:55.630Z,12.47
2019-01-12T08:23:23.123Z,20.92
2019-01-12T08:25:50.788Z,15.72
2019-01-12T08:28:18.265Z,17.80
2019-01-12T08:30:46.482Z,17.48
2019-01-12T08:33:14.188Z,19.55
2019-01-12T08:35:41.694Z,22.60
2019-01-12T08:38:09.268Z,12.80
2019-01-12T08:40:36.813Z,20.35
2019-01-12T08:43:04.334Z,16.87
2019-01-12T08:45:31.815Z,16.05
2019-01-12T08:47:59.289Z,14.93
2019-01-12T08:50:26.824Z,14.65
2019-01-12T08:52:54.277Z,19.25
2019-01-12T08:55:21.847Z,26.80
2019-01-12T08:57:49.353Z,19.82
2019-01-12T09:00:17.726Z,16.02
2019-01-12T09:02:45.665Z,17.20
2019-01-12T09:05:13.265Z,20.60
2019-01-12T09:07:40.864Z,15.95
2019-01-12T09:10:11.806Z,15.30
2019-01-12T09:12:39.341Z,14.28
2019-01-12T09:15:07.798Z,16.03
2019-01-12T09:17:35.296Z,13.70
2019-01-12T09:20:03.296Z,16.07
2019-01-12T09:22:30.781Z,19.57
2019-01-12T09:24:58.278Z,20.03
2019-01-12T09:27:25.820Z,20.20
2019-01-12T09:29:53.293Z,21.27
2019-01-12T09:32:20.782Z,22.87
2019-01-12T09:34:48.423Z,18.83
2019-01-12T09:37:15.876Z,27.27
2019-01-12T09:39:43.380Z,23.23
2019-01-12T09:42:11.885Z,22.03
2019-01-12T09:44:39.560Z,30.53
2019-01-12T09:47:07.046Z,28.20
2019-01-12T09:49:34.562Z,23.77
2019-01-12T09:52:02.109Z,28.40
2019-01-12T09:54:29.654Z,23.10
2019-01-12T09:56:57.152Z,19.17
2019-01-12T09:59:25.115Z,21.70
2019-01-12T10:01:52.652Z,21.73
2019-01-12T10:04:20.151Z,20.00
2019-01-12T10:06:47.660Z,20.73
2019-01-12T10:09:15.133Z,18.97
2019-01-12T10:11:42.637Z,28.43
2019-01-12T10:14:10.115Z,26.97
2019-01-12T10:16:37.587Z,23.23
2019-01-12T10:19:05.079Z,20.60
2019-01-12T10:21:32.556Z,21.40
2019-01-12T10:24:00.078Z,23.83
2019-01-12T10:26:27.549Z,20.27
2019-01-12T10:28:55.040Z,17.53
2019-01-12T10:31:22.540Z,23.77
2019-01-12T10:33:50.038Z,17.17
2019-01-12T10:36:17.498Z,17.97
2019-01-12T10:38:45.015Z,16.30
2019-01-12T10:41:12.478Z,14.27
2019-01-12T10:43:39.929Z,20.57
2019-01-12T10:46:07.420Z,22.70
2019-01-12T10:48:34.892Z,14.53
2019-01-12T10:51:02.316Z,13.93
2019-01-12T10:53:29.877Z,17.90
2019-01-12T10:55:57.339Z,15.10
2019-01-12T10:58:24.821Z,15.00
2019-01-12T11:00:52.297Z,11.83
2019-01-12T11:03:19.769Z,18.70
2019-01-12T11:05:47.328Z,12.00
2019-01-12T11:08:14.819Z,15.90
2019-01-12T11:10:42.348Z,10.80
2019-01-12T11:13:09.811Z,17.43
2019-01-12T11:15:37.304Z,11.50
2019-01-12T11:18:05.087Z,11.97
2019-01-12T11:20:32.604Z,12.33
2019-01-12T11:23:00.012Z,11.83
2019-01-12T11:25:27.512Z,9.43
2019-01-12T11:27:54.976Z,12.97
2019-01-12T11:30:22.427Z,13.70
2019-01-12T11:32:49.921Z,13.07
2019-01-12T11:35:17.397Z,13.93
2019-01-12T11:37:44.854Z,20.83
2019-01-12T11:40:13.768Z,20.57
2019-01-12T11:42:41.231Z,17.67
2019-01-12T11:45:08.764Z,13.23
2019-01-12T11:47:36.255Z,17.80
2019-01-12T11:50:05.212Z,23.60
2019-01-12T11:52:32.697Z,19.33
2019-01-12T11:55:00.230Z,14.40
2019-01-12T11:57:27.679Z,14.67
2019-01-12T11:59:55.951Z,14.87
2019-01-12T12:02:23.435Z,40.10
2019-01-12T12:04:50.902Z,15.70
2019-01-12T12:07:18.396Z,18.90
2019-01-12T12:09:45.874Z,14.33
2019-01-12T12:12:13.343Z,13.87
2019-01-12T12:14:40.854Z,13.43
2019-01-12T12:17:08.318Z,15.50
2019-01-12T12:19:35.853Z,14.90
2019-01-12T12:22:03.528Z,13.50
2019-01-12T12:24:30.999Z,13.97
2019-01-12T12:26:58.461Z,12.57
2019-01-12T12:29:25.951Z,14.63
2019-01-12T12:31:53.414Z,12.93
2019-01-12T12:34:20.807Z,12.00
2019-01-12T12:36:49.507Z,11.87
2019-01-12T12:39:17.236Z,13.90
2019-01-12T12:41:44.695Z,10.40
2019-01-12T12:44:12.208Z,11.50
2019-01-12T12:46:39.744Z,10.47
2019-01-12T12:49:07.233Z,12.53
2019-01-12T12:51:34.734Z,12.70
2019-01-12T12:54:02.195Z,13.47
2019-01-12T12:56:29.735Z,12.97
2019-01-12T12:58:57.243Z,13.23
2019-01-12T13:01:24.687Z,12.13
2019-01-12T13:03:52.224Z,12.93
2019-01-12T13:06:19.718Z,12.20
2019-01-12T13:08:48.491Z,19.73
2019-01-12T13:11:16.432Z,11.53
2019-01-12T13:13:43.936Z,17.80
2019-01-12T13:16:11.401Z,17.27
2019-01-12T13:18:38.872Z,13.43
2019-01-12T13:21:06.495Z,12.70
2019-01-12T13:23:33.952Z,10.33
2019-01-12T13:26:01.412Z,10.90
2019-01-12T13:28:28.911Z,10.63
2019-01-12T13:30:56.453Z,17.90
2019-01-12T13:33:23.928Z,11.90
2019-01-12T13:35:51.434Z,11.70
2019-01-12T13:38:18.973Z,16.00
2019-01-12T13:40:46.452Z,12.53
2019-01-12T13:43:13.947Z,12.20
2019-01-12T13:45:41.487Z,10.50
2019-01-12T13:48:08.994Z,11.37
2019-01-12T13:50:36.529Z,11.97
2019-01-12T13:53:03.985Z,9.80
2019-01-12T13:55:31.438Z,10.33
2019-01-12T13:57:58.884Z,12.80
2019-01-12T14:00:27.637Z,9.77
2019-01-12T14:02:55.097Z,10.77
2019-01-12T14:05:22.592Z,9.93
2019-01-12T14:07:56.281Z,12.00
2019-01-12T14:10:19.555Z,11.20
2019-01-12T14:12:47.028Z,9.47
2019-01-12T14:15:15.611Z,12.10
2019-01-12T14:17:43.069Z,11.43
2019-01-12T14:20:12.038Z,10.83
2019-01-12T14:22:39.486Z,10.97
2019-01-12T14:25:06.947Z,11.00
2019-01-12T14:27:34.445Z,13.43
2019-01-12T14:30:01.923Z,16.97
2019-01-12T14:32:30.104Z,9.67
2019-01-12T14:34:57.689Z,12.03
2019-01-12T14:37:25.177Z,12.77
2019-01-12T14:39:52.639Z,11.07
2019-01-12T14:42:20.110Z,12.80
2019-01-12T14:44:47.693Z,11.27
2019-01-12T14:47:15.136Z,11.10
2019-01-12T14:49:42.690Z,12.60
2019-01-12T14:52:10.301Z,13.63
2019-01-12T14:54:37.852Z,12.30
2019-01-12T14:57:05.360Z,12.40
2019-01-12T14:59:32.847Z,17.20
2019-01-12T15:02:00.336Z,14.00
2019-01-12T15:04:27.978Z,11.43
2019-01-12T15:06:55.412Z,12.07
2019-01-12T15:09:22.868Z,14.07
2019-01-12T15:11:50.356Z,12.17
2019-01-12T15:14:17.894Z,9.63
2019-01-12T15:16:45.419Z,9.43
2019-01-12T15:19:13.027Z,11.57
2019-01-12T15:21:40.523Z,13.70
2019-01-12T15:24:08.022Z,12.40
2019-01-12T15:26:36.947Z,8.90
2019-01-12T15:29:04.636Z,11.17
2019-01-12T15:31:32.167Z,8.97
2019-01-12T15:33:59.634Z,10.50
2019-01-12T15:36:27.151Z,12.13
2019-01-12T15:38:54.642Z,12.73
2019-01-12T15:41:22.090Z,11.90
2019-01-12T15:43:49.592Z,11.40
2019-01-12T15:46:17.066Z,14.13
2019-01-12T15:48:44.520Z,10.80
2019-01-12T15:51:12.007Z,9.63
2019-01-12T15:53:39.567Z,11.97
2019-01-12T15:56:07.042Z,12.20
2019-01-12T15:58:34.592Z,13.03
2019-01-12T16:01:02.059Z,12.80
2019-01-12T16:03:29.533Z,14.50
2019-01-12T16:05:57.048Z,11.80
2019-01-12T16:08:24.523Z,16.13
2019-01-12T16:10:51.980Z,9.60
2019-01-12T16:13:19.471Z,15.40
2019-01-12T16:15:47.001Z,12.23
2019-01-12T16:18:14.411Z,12.33
2019-01-12T16:20:42.142Z,14.67
2019-01-12T16:23:09.701Z,12.27
2019-01-12T16:25:37.189Z,12.90
2019-01-12T16:28:04.701Z,12.60
2019-01-12T16:30:32.220Z,11.43
2019-01-12T16:33:00.520Z,13.43
2019-01-12T16:35:28.029Z,14.70
2019-01-12T16:37:55.505Z,18.33
2019-01-12T16:40:24.174Z,13.90
2019-01-12T16:42:51.866Z,13.13
2019-01-12T16:45:19.385Z,14.87
2019-01-12T16:47:46.934Z,17.47
2019-01-12T16:50:14.432Z,16.17
2019-01-12T16:52:41.929Z,18.20
2019-01-12T16:55:10.622Z,15.43
2019-01-12T16:57:38.135Z,16.90
2019-01-12T17:00:07.148Z,16.10
2019-01-12T17:02:34.622Z,14.23
2019-01-12T17:05:02.301Z,14.50
2019-01-12T17:07:29.859Z,13.10
2019-01-12T17:09:57.377Z,16.90
2019-01-12T17:12:24.880Z,20.23
2019-01-12T17:14:52.356Z,22.30
2019-01-12T17:17:19.908Z,18.17
2019-01-12T17:19:47.480Z,23.40
2019-01-12T17:22:14.948Z,20.83
2019-01-12T17:24:42.470Z,19.73
2019-01-12T17:27:09.978Z,22.33
2019-01-12T17:29:37.492Z,17.67
2019-01-12T17:32:04.992Z,17.80
2019-01-12T17:34:32.464Z,17.53
2019-01-12T17:37:00.028Z,20.77
2019-01-12T17:39:27.581Z,20.33
2019-01-12T17:41:55.031Z,26.50
2019-01-12T17:44:22.548Z,20.00
2019-01-12T17:46:50.026Z,21.30
2019-01-12T17:49:17.489Z,18.70
2019-01-12T17:51:45.006Z,21.77
2019-01-12T17:54:12.472Z,20.27
2019-01-12T17:56:41.600Z,17.37
2019-01-12T17:59:09.119Z,17.57
2019-01-12T18:01:36.592Z,23.47
2019-01-12T18:04:04.272Z,19.30
2019-01-12T18:06:31.855Z,20.97
2019-01-12T18:08:59.413Z,24.37
2019-01-12T18:11:26.900Z,23.03
2019-01-12T18:13:54.420Z,18.70
2019-01-12T18:16:21.988Z,21.87
2019-01-12T18:18:49.446Z,25.90
2019-01-12T18:21:16.951Z,23.20
2019-01-12T18:23:44.513Z,24.53
2019-01-12T18:26:12.014Z,21.07
2019-01-12T18:28:39.500Z,21.13
2019-01-12T18:31:06.987Z,22.80
2019-01-12T18:33:34.486Z,22.43
2019-01-12T18:36:02.056Z,21.07
2019-01-12T18:38:29.540Z,21.70
2019-01-12T18:40:57.107Z,24.00
2019-01-12T18:43:24.581Z,21.60
2019-01-12T18:45:52.064Z,17.87
2019-01-12T18:48:19.626Z,17.57
2019-01-12T18:50:47.109Z,17.20
2019-01-12T18:53:14.575Z,21.00
2019-01-12T18:55:42.171Z,22.10
2019-01-12T18:58:09.628Z,20.50
2019-01-12T19:00:37.181Z,19.47
2019-01-12T19:03:04.689Z,18.40
2019-01-12T19:05:32.155Z,24.90
2019-01-12T19:07:59.716Z,19.30
2019-01-12T19:10:27.280Z,19.47
2019-01-12T19:12:54.882Z,17.33
2019-01-12T19:15:26.119Z,25.13
2019-01-12T19:17:53.583Z,21.13
2019-01-12T19:20:21.101Z,21.93
2019-01-12T19:22:48.568Z,17.20
2019-01-12T19:25:16.043Z,17.90
2019-01-12T19:27:43.578Z,22.13
2019-01-12T19:30:12.612Z,24.60
2019-01-12T19:32:40.108Z,20.53
2019-01-12T19:35:07.874Z,20.40
2019-01-12T19:37:35.364Z,20.07
2019-01-12T19:40:02.828Z,20.10
2019-01-12T19:42:31.421Z,23.90
2019-01-12T19:44:59.184Z,20.30
2019-01-12T19:47:26.708Z,23.90
2019-01-12T19:49:54.216Z,19.30
2019-01-12T19:52:21.708Z,24.27
2019-01-12T19:54:49.175Z,17.50
2019-01-12T19:57:16.686Z,17.20
2019-01-12T19:59:44.173Z,15.20
2019-01-12T20:02:11.639Z,17.97
2019-01-12T20:04:39.192Z,16.83
2019-01-12T20:07:06.666Z,20.47
2019-01-12T20:09:34.216Z,20.90
2019-01-12T20:12:02.568Z,18.03
2019-01-12T20:14:30.123Z,20.77
2019-01-12T20:16:57.703Z,20.03
2019-01-12T20:19:25.205Z,17.97
2019-01-12T20:21:52.677Z,17.90
2019-01-12T20:24:20.135Z,18.97
2019-01-12T20:26:47.654Z,18.70
2019-01-12T20:29:21.136Z,22.70
2019-01-12T20:31:48.478Z,19.57
2019-01-12T20:34:20.632Z,20.93
2019-01-12T20:37:06.000Z,23.83
2019-01-12T20:39:37.693Z,20.23
2019-01-12T20:42:15.787Z,23.60
2019-01-12T20:44:47.547Z,26.97
2019-01-12T20:47:16.595Z,24.17
2019-01-12T20:49:46.739Z,21.30
2019-01-12T20:52:15.804Z,24.73
2019-01-12T20:54:54.276Z,19.93
2019-01-12T20:57:23.274Z,18.07
2019-01-12T21:00:10.789Z,22.57
2019-01-12T21:02:39.832Z,25.73
2019-01-12T21:05:17.544Z,18.97
2019-01-12T21:07:49.207Z,18.07
2019-01-12T21:10:18.218Z,17.83
2019-01-12T21:13:05.168Z,18.83
2019-01-12T21:15:34.184Z,20.93
2019-01-12T21:18:01.738Z,20.53
2019-01-12T21:20:29.239Z,18.77
2019-01-12T21:22:56.832Z,18.03
2019-01-12T21:25:24.372Z,21.27
2019-01-12T21:27:51.939Z,22.23
2019-01-12T21:30:19.478Z,19.23
2019-01-12T21:32:46.954Z,20.60
2019-01-12T21:35:14.459Z,27.03
2019-01-12T21:37:41.936Z,24.83
2019-01-12T21:40:10.586Z,20.53
2019-01-12T21:42:38.086Z,25.33
2019-01-12T21:45:07.164Z,23.27
2019-01-12T21:47:34.633Z,21.70
2019-01-12T21:50:02.180Z,21.23
2019-01-12T21:52:29.800Z,19.90
2019-01-12T21:54:57.267Z,21.63
2019-01-12T21:57:24.808Z,19.47
2019-01-12T21:59:52.344Z,19.83
2019-01-12T22:02:19.840Z,18.47
2019-01-12T22:04:47.381Z,16.23
2019-01-12T22:07:14.838Z,16.80
2019-01-12T22:09:42.307Z,20.63
2019-01-12T22:12:10.392Z,20.33
2019-01-12T22:14:37.891Z,13.90
2019-01-12T22:17:05.363Z,20.33
2019-01-12T22:19:32.936Z,15.00
2019-01-12T22:22:00.586Z,19.10
2019-01-12T22:24:28.076Z,15.33
2019-01-12T22:26:55.537Z,16.50
2019-01-12T22:29:23.043Z,18.10
2019-01-12T22:31:50.532Z,23.37
2019-01-12T22:34:18.065Z,23.37
2019-01-12T22:36:45.489Z,14.53
2019-01-12T22:39:12.974Z,19.83
2019-01-12T22:41:40.435Z,18.23
2019-01-12T22:44:07.960Z,21.07
2019-01-12T22:46:35.435Z,15.23
2019-01-12T22:49:02.920Z,18.40
2019-01-12T22:51:30.437Z,20.00
2019-01-12T22:53:57.956Z,19.10
2019-01-12T22:56:25.416Z,19.00
2019-01-12T22:58:52.920Z,19.83
2019-01-12T23:01:21.866Z,20.33
2019-01-12T23:03:49.668Z,21.20
2019-01-12T23:06:17.180Z,23.33
2019-01-12T23:08:44.758Z,22.20
2019-01-12T23:11:12.445Z,19.83
2019-01-12T23:13:39.918Z,25.53
2019-01-12T23:16:07.468Z,23.10
2019-01-12T23:18:35.028Z,29.03
2019-01-12T23:21:02.616Z,25.20
2019-01-12T23:23:30.149Z,19.10
2019-01-12T23:25:57.615Z,19.13
2019-01-12T23:28:25.148Z,19.80
2019-01-12T23:30:52.683Z,18.50
2019-01-12T23:33:20.165Z,22.60
2019-01-12T23:35:47.691Z,23.90
2019-01-12T23:38:15.165Z,22.60
2019-01-12T23:40:42.727Z,22.50
2019-01-12T23:43:10.233Z,23.07
2019-01-12T23:45:37.983Z,24.80
2019-01-12T23:48:05.456Z,20.33
2019-01-12T23:50:32.974Z,22.07
2019-01-12T23:53:00.459Z,22.47
2019-01-12T23:55:28.014Z,24.40
2019-01-12T23:57:55.513Z,25.40
